sensor_id;sensor_type;location;lat;lon;timestamp;P1;durP1;ratioP1;P2;durP2;ratioP2
7841;SDS011;3966;51.052;13.820;2022-09-23T00:02:13;2.63;;;1.80;;
7841;SDS011;3966;51.052;13.820;2022-09-23T00:04:40;2.95;;;2.33;;
7841;SDS011;3966;51.052;13.820;2022-09-23T00:07:06;3.58;;;2.22;;
7841;SDS011;3966;51.052;13.820;2022-09-23T00:09:32;6.28;;;2.35;;
7841;SDS011;3966;51.052;13.820;2022-09-23T00:11:58;2.20;;;2.00;;
7841;SDS011;3966;51.052;13.820;2022-09-23T00:14:24;6.30;;;2.28;;
7841;SDS011;3966;51.052;13.820;2022-09-23T00:16:50;3.00;;;2.00;;
7841;SDS011;3966;51.052;13.820;2022-09-23T00:19:15;3.35;;;2.00;;
7841;SDS011;3966;51.052;13.820;2022-09-23T00:21:41;5.03;;;2.50;;
7841;SDS011;3966;51.052;13.820;2022-09-23T00:24:06;5.03;;;2.30;;
7841;SDS011;3966;51.052;13.820;2022-09-23T00:26:32;3.72;;;2.13;;
7841;SDS011;3966;51.052;13.820;2022-09-23T00:28:57;2.38;;;1.60;;
7841;SDS011;3966;51.052;13.820;2022-09-23T00:31:23;2.13;;;1.92;;
7841;SDS011;3966;51.052;13.820;2022-09-23T00:33:54;2.67;;;2.08;;
7841;SDS011;3966;51.052;13.820;2022-09-23T00:36:21;6.35;;;2.38;;
7841;SDS011;3966;51.052;13.820;2022-09-23T00:38:47;3.70;;;2.13;;
7841;SDS011;3966;51.052;13.820;2022-09-23T00:41:13;6.78;;;2.55;;
7841;SDS011;3966;51.052;13.820;2022-09-23T00:43:45;3.95;;;2.00;;
7841;SDS011;3966;51.052;13.820;2022-09-23T00:48:44;2.78;;;2.00;;
7841;SDS011;3966;51.052;13.820;2022-09-23T00:51:11;3.97;;;2.10;;
7841;SDS011;3966;51.052;13.820;2022-09-23T00:53:41;2.45;;;1.95;;
7841;SDS011;3966;51.052;13.820;2022-09-23T00:56:08;3.72;;;2.65;;
7841;SDS011;3966;51.052;13.820;2022-09-23T00:58:36;5.22;;;2.67;;
7841;SDS011;3966;51.052;13.820;2022-09-23T01:01:05;1.98;;;1.83;;
7841;SDS011;3966;51.052;13.820;2022-09-23T01:03:31;4.63;;;2.42;;
7841;SDS011;3966;51.052;13.820;2022-09-23T01:05:56;2.47;;;2.28;;
7841;SDS011;3966;51.052;13.820;2022-09-23T01:08:22;2.53;;;2.20;;
7841;SDS011;3966;51.052;13.820;2022-09-23T01:21:19;3.63;;;2.22;;
7841;SDS011;3966;51.052;13.820;2022-09-23T01:24:07;2.75;;;2.33;;
7841;SDS011;3966;51.052;13.820;2022-09-23T01:27:04;2.70;;;2.30;;
7841;SDS011;3966;51.052;13.820;2022-09-23T01:44:04;2.20;;;2.00;;
7841;SDS011;3966;51.052;13.820;2022-09-23T01:46:42;2.40;;;2.20;;
7841;SDS011;3966;51.052;13.820;2022-09-23T01:51:59;3.30;;;2.50;;
7841;SDS011;3966;51.052;13.820;2022-09-23T01:54:38;2.50;;;2.22;;
7841;SDS011;3966;51.052;13.820;2022-09-23T01:57:22;3.70;;;2.38;;
7841;SDS011;3966;51.052;13.820;2022-09-23T02:00:15;9.23;;;2.63;;
7841;SDS011;3966;51.052;13.820;2022-09-23T02:02:47;3.50;;;2.38;;
7841;SDS011;3966;51.052;13.820;2022-09-23T02:05:32;5.07;;;2.40;;
7841;SDS011;3966;51.052;13.820;2022-09-23T02:08:06;2.63;;;2.03;;
7841;SDS011;3966;51.052;13.820;2022-09-23T02:10:35;4.85;;;2.60;;
7841;SDS011;3966;51.052;13.820;2022-09-23T02:13:27;2.70;;;2.30;;
7841;SDS011;3966;51.052;13.820;2022-09-23T02:16:03;2.75;;;2.30;;
7841;SDS011;3966;51.052;13.820;2022-09-23T02:18:38;7.57;;;2.45;;
7841;SDS011;3966;51.052;13.820;2022-09-23T02:21:34;3.80;;;2.28;;
7841;SDS011;3966;51.052;13.820;2022-09-23T02:24:06;3.45;;;2.13;;
7841;SDS011;3966;51.052;13.820;2022-09-23T02:29:30;4.15;;;2.50;;
7841;SDS011;3966;51.052;13.820;2022-09-23T02:32:22;2.80;;;2.58;;
7841;SDS011;3966;51.052;13.820;2022-09-23T02:35:08;4.35;;;2.42;;
7841;SDS011;3966;51.052;13.820;2022-09-23T02:40:48;3.38;;;2.30;;
7841;SDS011;3966;51.052;13.820;2022-09-23T02:43:25;5.05;;;2.53;;
7841;SDS011;3966;51.052;13.820;2022-09-23T02:46:12;7.55;;;2.80;;
7841;SDS011;3966;51.052;13.820;2022-09-23T02:48:40;3.03;;;2.40;;
7841;SDS011;3966;51.052;13.820;2022-09-23T02:51:09;3.83;;;2.55;;
7841;SDS011;3966;51.052;13.820;2022-09-23T02:53:34;5.45;;;2.53;;
7841;SDS011;3966;51.052;13.820;2022-09-23T02:56:01;3.53;;;2.45;;
7841;SDS011;3966;51.052;13.820;2022-09-23T02:58:38;3.00;;;2.25;;
7841;SDS011;3966;51.052;13.820;2022-09-23T03:04:02;3.05;;;2.63;;
7841;SDS011;3966;51.052;13.820;2022-09-23T03:06:45;3.72;;;2.53;;
7841;SDS011;3966;51.052;13.820;2022-09-23T03:09:26;2.72;;;2.40;;
7841;SDS011;3966;51.052;13.820;2022-09-23T03:12:14;7.78;;;3.00;;
7841;SDS011;3966;51.052;13.820;2022-09-23T03:17:22;3.15;;;2.60;;
7841;SDS011;3966;51.052;13.820;2022-09-23T03:20:02;3.13;;;2.35;;
7841;SDS011;3966;51.052;13.820;2022-09-23T03:22:34;3.10;;;2.78;;
7841;SDS011;3966;51.052;13.820;2022-09-23T03:25:22;9.95;;;2.63;;
7841;SDS011;3966;51.052;13.820;2022-09-23T03:27:49;4.45;;;2.75;;
7841;SDS011;3966;51.052;13.820;2022-09-23T03:30:20;5.53;;;2.78;;
7841;SDS011;3966;51.052;13.820;2022-09-23T03:32:46;4.03;;;2.30;;
7841;SDS011;3966;51.052;13.820;2022-09-23T03:35:15;7.68;;;2.85;;
7841;SDS011;3966;51.052;13.820;2022-09-23T03:37:43;4.32;;;2.55;;
7841;SDS011;3966;51.052;13.820;2022-09-23T03:40:38;5.38;;;2.78;;
7841;SDS011;3966;51.052;13.820;2022-09-23T03:43:07;4.63;;;2.85;;
7841;SDS011;3966;51.052;13.820;2022-09-23T03:45:33;4.60;;;3.28;;
7841;SDS011;3966;51.052;13.820;2022-09-23T03:48:00;7.75;;;3.05;;
7841;SDS011;3966;51.052;13.820;2022-09-23T03:50:26;4.22;;;2.92;;
7841;SDS011;3966;51.052;13.820;2022-09-23T03:52:51;4.80;;;2.55;;
7841;SDS011;3966;51.052;13.820;2022-09-23T03:55:18;3.00;;;2.67;;
7841;SDS011;3966;51.052;13.820;2022-09-23T03:57:44;3.63;;;2.75;;
7841;SDS011;3966;51.052;13.820;2022-09-23T04:00:10;3.47;;;2.78;;
7841;SDS011;3966;51.052;13.820;2022-09-23T04:02:37;3.35;;;2.67;;
7841;SDS011;3966;51.052;13.820;2022-09-23T04:05:03;3.58;;;2.80;;
7841;SDS011;3966;51.052;13.820;2022-09-23T04:07:29;5.22;;;2.95;;
7841;SDS011;3966;51.052;13.820;2022-09-23T04:09:55;3.03;;;2.70;;
7841;SDS011;3966;51.052;13.820;2022-09-23T04:12:20;3.88;;;3.10;;
7841;SDS011;3966;51.052;13.820;2022-09-23T04:14:46;3.15;;;2.25;;
7841;SDS011;3966;51.052;13.820;2022-09-23T04:17:12;3.83;;;3.03;;
7841;SDS011;3966;51.052;13.820;2022-09-23T04:19:37;5.07;;;3.38;;
7841;SDS011;3966;51.052;13.820;2022-09-23T04:22:03;3.33;;;2.83;;
7841;SDS011;3966;51.052;13.820;2022-09-23T04:24:29;6.70;;;3.25;;
7841;SDS011;3966;51.052;13.820;2022-09-23T04:26:55;4.90;;;2.95;;
7841;SDS011;3966;51.052;13.820;2022-09-23T04:29:21;3.53;;;2.83;;
7841;SDS011;3966;51.052;13.820;2022-09-23T04:31:48;8.43;;;2.63;;
7841;SDS011;3966;51.052;13.820;2022-09-23T04:34:14;3.28;;;2.78;;
7841;SDS011;3966;51.052;13.820;2022-09-23T04:36:41;3.22;;;2.63;;
7841;SDS011;3966;51.052;13.820;2022-09-23T04:39:08;5.03;;;2.42;;
7841;SDS011;3966;51.052;13.820;2022-09-23T04:41:33;5.68;;;2.90;;
7841;SDS011;3966;51.052;13.820;2022-09-23T04:43:59;3.53;;;2.80;;
7841;SDS011;3966;51.052;13.820;2022-09-23T04:46:25;4.22;;;2.78;;
7841;SDS011;3966;51.052;13.820;2022-09-23T04:48:50;4.70;;;2.70;;
7841;SDS011;3966;51.052;13.820;2022-09-23T04:51:19;3.67;;;2.42;;
7841;SDS011;3966;51.052;13.820;2022-09-23T04:53:49;5.05;;;2.63;;
7841;SDS011;3966;51.052;13.820;2022-09-23T04:56:16;5.68;;;3.38;;
7841;SDS011;3966;51.052;13.820;2022-09-23T04:58:42;6.88;;;3.72;;
7841;SDS011;3966;51.052;13.820;2022-09-23T05:01:19;4.40;;;2.95;;
7841;SDS011;3966;51.052;13.820;2022-09-23T05:04:00;11.50;;;3.47;;
7841;SDS011;3966;51.052;13.820;2022-09-23T05:06:33;4.97;;;3.08;;
7841;SDS011;3966;51.052;13.820;2022-09-23T05:08:59;5.32;;;3.13;;
7841;SDS011;3966;51.052;13.820;2022-09-23T05:11:26;4.22;;;2.92;;
7841;SDS011;3966;51.052;13.820;2022-09-23T05:13:54;5.05;;;2.85;;
7841;SDS011;3966;51.052;13.820;2022-09-23T05:16:19;5.88;;;3.40;;
7841;SDS011;3966;51.052;13.820;2022-09-23T05:18:47;5.72;;;3.40;;
7841;SDS011;3966;51.052;13.820;2022-09-23T05:21:21;5.60;;;3.42;;
7841;SDS011;3966;51.052;13.820;2022-09-23T05:23:48;5.57;;;3.25;;
7841;SDS011;3966;51.052;13.820;2022-09-23T05:26:19;6.20;;;3.30;;
7841;SDS011;3966;51.052;13.820;2022-09-23T05:28:45;3.45;;;2.95;;
7841;SDS011;3966;51.052;13.820;2022-09-23T05:31:12;3.22;;;2.88;;
7841;SDS011;3966;51.052;13.820;2022-09-23T05:33:41;4.40;;;2.78;;
7841;SDS011;3966;51.052;13.820;2022-09-23T05:36:08;6.43;;;2.97;;
7841;SDS011;3966;51.052;13.820;2022-09-23T05:38:34;4.32;;;2.97;;
7841;SDS011;3966;51.052;13.820;2022-09-23T05:41:01;4.07;;;2.80;;
7841;SDS011;3966;51.052;13.820;2022-09-23T05:43:28;5.32;;;2.95;;
7841;SDS011;3966;51.052;13.820;2022-09-23T05:46:28;5.60;;;3.22;;
7841;SDS011;3966;51.052;13.820;2022-09-23T05:48:47;4.45;;;3.00;;
7841;SDS011;3966;51.052;13.820;2022-09-23T05:51:20;4.70;;;2.50;;
7841;SDS011;3966;51.052;13.820;2022-09-23T05:53:51;4.10;;;3.42;;
7841;SDS011;3966;51.052;13.820;2022-09-23T05:56:18;8.30;;;3.53;;
7841;SDS011;3966;51.052;13.820;2022-09-23T05:58:47;4.45;;;2.72;;
7841;SDS011;3966;51.052;13.820;2022-09-23T06:01:18;4.72;;;3.40;;
7841;SDS011;3966;51.052;13.820;2022-09-23T06:03:46;4.25;;;2.90;;
7841;SDS011;3966;51.052;13.820;2022-09-23T06:06:13;6.80;;;3.10;;
7841;SDS011;3966;51.052;13.820;2022-09-23T06:08:39;3.80;;;3.40;;
7841;SDS011;3966;51.052;13.820;2022-09-23T06:11:06;4.75;;;3.30;;
7841;SDS011;3966;51.052;13.820;2022-09-23T06:13:35;5.25;;;3.45;;
7841;SDS011;3966;51.052;13.820;2022-09-23T06:16:08;13.38;;;3.65;;
7841;SDS011;3966;51.052;13.820;2022-09-23T06:18:36;6.63;;;3.20;;
7841;SDS011;3966;51.052;13.820;2022-09-23T06:21:03;4.82;;;3.33;;
7841;SDS011;3966;51.052;13.820;2022-09-23T06:23:29;5.85;;;3.90;;
7841;SDS011;3966;51.052;13.820;2022-09-23T06:26:01;4.88;;;3.53;;
7841;SDS011;3966;51.052;13.820;2022-09-23T06:28:31;5.95;;;3.80;;
7841;SDS011;3966;51.052;13.820;2022-09-23T06:30:58;4.60;;;3.58;;
7841;SDS011;3966;51.052;13.820;2022-09-23T06:33:27;9.80;;;3.65;;
7841;SDS011;3966;51.052;13.820;2022-09-23T06:35:56;3.70;;;3.17;;
7841;SDS011;3966;51.052;13.820;2022-09-23T06:38:23;5.35;;;3.30;;
7841;SDS011;3966;51.052;13.820;2022-09-23T06:40:53;7.03;;;3.83;;
7841;SDS011;3966;51.052;13.820;2022-09-23T06:43:23;6.38;;;3.70;;
7841;SDS011;3966;51.052;13.820;2022-09-23T06:45:57;7.25;;;4.28;;
7841;SDS011;3966;51.052;13.820;2022-09-23T06:48:24;5.93;;;4.38;;
7841;SDS011;3966;51.052;13.820;2022-09-23T06:50:50;7.82;;;3.78;;
7841;SDS011;3966;51.052;13.820;2022-09-23T06:53:17;7.82;;;3.90;;
7841;SDS011;3966;51.052;13.820;2022-09-23T06:55:44;6.78;;;4.30;;
7841;SDS011;3966;51.052;13.820;2022-09-23T06:58:10;12.90;;;4.05;;
7841;SDS011;3966;51.052;13.820;2022-09-23T07:00:36;8.48;;;3.70;;
7841;SDS011;3966;51.052;13.820;2022-09-23T07:03:05;6.35;;;4.05;;
7841;SDS011;3966;51.052;13.820;2022-09-23T07:05:34;6.82;;;4.32;;
7841;SDS011;3966;51.052;13.820;2022-09-23T07:08:00;5.72;;;4.15;;
7841;SDS011;3966;51.052;13.820;2022-09-23T07:10:26;6.93;;;4.30;;
7841;SDS011;3966;51.052;13.820;2022-09-23T07:12:55;9.90;;;5.00;;
7841;SDS011;3966;51.052;13.820;2022-09-23T07:15:20;10.88;;;4.75;;
7841;SDS011;3966;51.052;13.820;2022-09-23T07:17:46;6.15;;;4.10;;
7841;SDS011;3966;51.052;13.820;2022-09-23T07:20:11;8.82;;;5.13;;
7841;SDS011;3966;51.052;13.820;2022-09-23T07:22:37;9.07;;;4.13;;
7841;SDS011;3966;51.052;13.820;2022-09-23T07:25:02;6.35;;;4.22;;
7841;SDS011;3966;51.052;13.820;2022-09-23T07:27:29;5.43;;;3.83;;
7841;SDS011;3966;51.052;13.820;2022-09-23T07:29:55;5.88;;;4.32;;
7841;SDS011;3966;51.052;13.820;2022-09-23T07:32:21;9.40;;;3.92;;
7841;SDS011;3966;51.052;13.820;2022-09-23T07:34:47;10.65;;;5.30;;
7841;SDS011;3966;51.052;13.820;2022-09-23T07:37:14;6.30;;;4.20;;
7841;SDS011;3966;51.052;13.820;2022-09-23T07:39:40;4.97;;;3.83;;
7841;SDS011;3966;51.052;13.820;2022-09-23T07:42:06;8.98;;;4.47;;
7841;SDS011;3966;51.052;13.820;2022-09-23T07:44:32;5.40;;;3.28;;
7841;SDS011;3966;51.052;13.820;2022-09-23T07:46:58;6.25;;;3.45;;
7841;SDS011;3966;51.052;13.820;2022-09-23T07:49:24;5.45;;;3.30;;
7841;SDS011;3966;51.052;13.820;2022-09-23T07:51:51;3.88;;;3.20;;
7841;SDS011;3966;51.052;13.820;2022-09-23T07:54:17;5.22;;;3.67;;
7841;SDS011;3966;51.052;13.820;2022-09-23T07:56:43;5.90;;;3.53;;
7841;SDS011;3966;51.052;13.820;2022-09-23T07:59:16;10.55;;;4.22;;
7841;SDS011;3966;51.052;13.820;2022-09-23T08:01:50;7.85;;;4.57;;
7841;SDS011;3966;51.052;13.820;2022-09-23T08:04:25;10.07;;;4.60;;
7841;SDS011;3966;51.052;13.820;2022-09-23T08:06:54;11.18;;;5.03;;
7841;SDS011;3966;51.052;13.820;2022-09-23T08:09:22;7.97;;;3.97;;
7841;SDS011;3966;51.052;13.820;2022-09-23T08:11:53;5.75;;;3.85;;
7841;SDS011;3966;51.052;13.820;2022-09-23T08:14:19;11.32;;;4.22;;
7841;SDS011;3966;51.052;13.820;2022-09-23T08:16:46;6.13;;;3.42;;
7841;SDS011;3966;51.052;13.820;2022-09-23T08:19:12;4.88;;;3.42;;
7841;SDS011;3966;51.052;13.820;2022-09-23T08:21:38;9.45;;;3.25;;
7841;SDS011;3966;51.052;13.820;2022-09-23T08:24:10;7.20;;;3.00;;
7841;SDS011;3966;51.052;13.820;2022-09-23T08:26:39;4.82;;;2.63;;
7841;SDS011;3966;51.052;13.820;2022-09-23T08:29:04;4.43;;;2.53;;
7841;SDS011;3966;51.052;13.820;2022-09-23T08:31:30;7.75;;;3.03;;
7841;SDS011;3966;51.052;13.820;2022-09-23T08:33:56;3.22;;;2.75;;
7841;SDS011;3966;51.052;13.820;2022-09-23T08:36:23;3.65;;;2.70;;
7841;SDS011;3966;51.052;13.820;2022-09-23T08:38:49;4.82;;;2.92;;
7841;SDS011;3966;51.052;13.820;2022-09-23T08:41:19;4.05;;;2.47;;
7841;SDS011;3966;51.052;13.820;2022-09-23T08:44:02;2.72;;;2.53;;
7841;SDS011;3966;51.052;13.820;2022-09-23T08:46:36;3.42;;;2.65;;
7841;SDS011;3966;51.052;13.820;2022-09-23T08:49:31;3.55;;;2.60;;
7841;SDS011;3966;51.052;13.820;2022-09-23T08:52:02;3.22;;;2.40;;
7841;SDS011;3966;51.052;13.820;2022-09-23T08:54:36;4.35;;;2.58;;
7841;SDS011;3966;51.052;13.820;2022-09-23T08:57:02;5.43;;;2.85;;
7841;SDS011;3966;51.052;13.820;2022-09-23T08:59:42;2.45;;;2.25;;
7841;SDS011;3966;51.052;13.820;2022-09-23T09:02:12;2.40;;;2.10;;
7841;SDS011;3966;51.052;13.820;2022-09-23T09:04:42;6.35;;;2.58;;
7841;SDS011;3966;51.052;13.820;2022-09-23T09:07:13;3.88;;;2.15;;
7841;SDS011;3966;51.052;13.820;2022-09-23T09:09:50;2.67;;;2.40;;
7841;SDS011;3966;51.052;13.820;2022-09-23T09:12:31;3.33;;;2.30;;
7841;SDS011;3966;51.052;13.820;2022-09-23T09:17:35;2.33;;;2.13;;
7841;SDS011;3966;51.052;13.820;2022-09-23T09:25:16;1.83;;;1.73;;
7841;SDS011;3966;51.052;13.820;2022-09-23T09:28:00;2.63;;;1.90;;
7841;SDS011;3966;51.052;13.820;2022-09-23T09:30:28;4.35;;;1.98;;
7841;SDS011;3966;51.052;13.820;2022-09-23T09:33:03;3.00;;;1.77;;
7841;SDS011;3966;51.052;13.820;2022-09-23T09:36:17;2.60;;;1.60;;
7841;SDS011;3966;51.052;13.820;2022-09-23T09:38:27;1.90;;;1.52;;
7841;SDS011;3966;51.052;13.820;2022-09-23T09:40:53;2.88;;;1.50;;
7841;SDS011;3966;51.052;13.820;2022-09-23T09:43:23;2.53;;;1.33;;
7841;SDS011;3966;51.052;13.820;2022-09-23T09:48:20;2.00;;;1.40;;
7841;SDS011;3966;51.052;13.820;2022-09-23T09:50:52;2.58;;;1.67;;
7841;SDS011;3966;51.052;13.820;2022-09-23T09:58:59;1.88;;;0.90;;
7841;SDS011;3966;51.052;13.820;2022-09-23T10:01:30;2.40;;;1.00;;
7841;SDS011;3966;51.052;13.820;2022-09-23T10:03:58;1.42;;;1.10;;
7841;SDS011;3966;51.052;13.820;2022-09-23T10:06:29;1.88;;;1.30;;
7841;SDS011;3966;51.052;13.820;2022-09-23T10:11:25;1.42;;;0.65;;
7841;SDS011;3966;51.052;13.820;2022-09-23T10:16:24;1.05;;;0.95;;
7841;SDS011;3966;51.052;13.820;2022-09-23T10:18:50;2.47;;;1.10;;
7841;SDS011;3966;51.052;13.820;2022-09-23T10:21:20;1.58;;;1.15;;
7841;SDS011;3966;51.052;13.820;2022-09-23T10:23:49;1.73;;;1.30;;
7841;SDS011;3966;51.052;13.820;2022-09-23T10:26:16;1.02;;;0.80;;
7841;SDS011;3966;51.052;13.820;2022-09-23T10:28:51;0.90;;;0.90;;
7841;SDS011;3966;51.052;13.820;2022-09-23T10:31:32;1.67;;;0.80;;
7841;SDS011;3966;51.052;13.820;2022-09-23T10:36:53;1.25;;;0.65;;
7841;SDS011;3966;51.052;13.820;2022-09-23T10:39:25;3.60;;;0.70;;
7841;SDS011;3966;51.052;13.820;2022-09-23T10:42:26;0.98;;;0.82;;
7841;SDS011;3966;51.052;13.820;2022-09-23T10:45:36;2.97;;;0.93;;
7841;SDS011;3966;51.052;13.820;2022-09-23T10:51:02;1.30;;;0.70;;
7841;SDS011;3966;51.052;13.820;2022-09-23T10:54:01;3.10;;;1.15;;
7841;SDS011;3966;51.052;13.820;2022-09-23T10:56:42;0.80;;;0.80;;
7841;SDS011;3966;51.052;13.820;2022-09-23T11:05:03;1.80;;;0.90;;
7841;SDS011;3966;51.052;13.820;2022-09-23T11:07:51;1.35;;;0.77;;
7841;SDS011;3966;51.052;13.820;2022-09-23T11:18:26;1.52;;;1.02;;
7841;SDS011;3966;51.052;13.820;2022-09-23T11:21:03;1.48;;;0.85;;
7841;SDS011;3966;51.052;13.820;2022-09-23T11:29:58;1.70;;;0.70;;
7841;SDS011;3966;51.052;13.820;2022-09-23T11:35:28;1.55;;;0.70;;
7841;SDS011;3966;51.052;13.820;2022-09-23T11:38:04;0.90;;;0.75;;
7841;SDS011;3966;51.052;13.820;2022-09-23T11:40:34;1.00;;;0.88;;
7841;SDS011;3966;51.052;13.820;2022-09-23T11:43:03;1.95;;;1.13;;
7841;SDS011;3966;51.052;13.820;2022-09-23T11:45:40;0.88;;;0.70;;
7841;SDS011;3966;51.052;13.820;2022-09-23T11:51:47;3.15;;;1.10;;
7841;SDS011;3966;51.052;13.820;2022-09-23T11:54:30;1.10;;;1.00;;
7841;SDS011;3966;51.052;13.820;2022-09-23T11:57:04;1.30;;;0.68;;
7841;SDS011;3966;51.052;13.820;2022-09-23T12:02:19;1.25;;;0.88;;
7841;SDS011;3966;51.052;13.820;2022-09-23T12:05:01;1.85;;;0.80;;
7841;SDS011;3966;51.052;13.820;2022-09-23T12:18:53;1.45;;;0.90;;
7841;SDS011;3966;51.052;13.820;2022-09-23T12:21:59;1.73;;;0.77;;
7841;SDS011;3966;51.052;13.820;2022-09-23T12:24:46;2.15;;;0.75;;
7841;SDS011;3966;51.052;13.820;2022-09-23T12:27:43;1.10;;;0.80;;
7841;SDS011;3966;51.052;13.820;2022-09-23T12:30:16;1.27;;;0.90;;
7841;SDS011;3966;51.052;13.820;2022-09-23T12:32:44;1.23;;;0.77;;
7841;SDS011;3966;51.052;13.820;2022-09-23T12:37:49;1.48;;;1.08;;
7841;SDS011;3966;51.052;13.820;2022-09-23T12:40:19;0.80;;;0.80;;
7841;SDS011;3966;51.052;13.820;2022-09-23T12:42:59;1.70;;;0.85;;
7841;SDS011;3966;51.052;13.820;2022-09-23T12:47:59;0.70;;;0.70;;
7841;SDS011;3966;51.052;13.820;2022-09-23T13:03:57;3.08;;;0.95;;
7841;SDS011;3966;51.052;13.820;2022-09-23T13:06:57;5.35;;;0.93;;
7841;SDS011;3966;51.052;13.820;2022-09-23T13:09:31;2.60;;;0.90;;
7841;SDS011;3966;51.052;13.820;2022-09-23T13:12:06;1.83;;;1.70;;
7841;SDS011;3966;51.052;13.820;2022-09-23T13:14:41;1.48;;;0.77;;
7841;SDS011;3966;51.052;13.820;2022-09-23T13:17:20;1.92;;;0.82;;
7841;SDS011;3966;51.052;13.820;2022-09-23T13:19:56;4.32;;;1.20;;
7841;SDS011;3966;51.052;13.820;2022-09-23T13:25:49;2.95;;;1.17;;
7841;SDS011;3966;51.052;13.820;2022-09-23T13:28:31;2.10;;;1.50;;
7841;SDS011;3966;51.052;13.820;2022-09-23T13:31:04;1.30;;;1.10;;
7841;SDS011;3966;51.052;13.820;2022-09-23T13:33:51;2.25;;;1.10;;
7841;SDS011;3966;51.052;13.820;2022-09-23T13:36:23;1.65;;;1.30;;
7841;SDS011;3966;51.052;13.820;2022-09-23T13:38:48;1.40;;;1.30;;
7841;SDS011;3966;51.052;13.820;2022-09-23T13:46:11;2.38;;;2.10;;
7841;SDS011;3966;51.052;13.820;2022-09-23T13:48:40;6.60;;;1.42;;
7841;SDS011;3966;51.052;13.820;2022-09-23T13:51:09;1.77;;;1.50;;
7841;SDS011;3966;51.052;13.820;2022-09-23T13:53:39;1.45;;;1.33;;
7841;SDS011;3966;51.052;13.820;2022-09-23T13:56:05;1.58;;;1.40;;
7841;SDS011;3966;51.052;13.820;2022-09-23T13:58:35;4.80;;;2.53;;
7841;SDS011;3966;51.052;13.820;2022-09-23T14:01:01;2.35;;;1.50;;
7841;SDS011;3966;51.052;13.820;2022-09-23T14:05:55;2.53;;;2.05;;
7841;SDS011;3966;51.052;13.820;2022-09-23T14:08:23;1.92;;;1.45;;
7841;SDS011;3966;51.052;13.820;2022-09-23T14:10:49;3.80;;;1.85;;
7841;SDS011;3966;51.052;13.820;2022-09-23T14:13:19;4.20;;;2.08;;
7841;SDS011;3966;51.052;13.820;2022-09-23T14:15:48;3.55;;;1.60;;
7841;SDS011;3966;51.052;13.820;2022-09-23T14:18:16;6.35;;;1.95;;
7841;SDS011;3966;51.052;13.820;2022-09-23T14:20:49;1.77;;;1.67;;
7841;SDS011;3966;51.052;13.820;2022-09-23T14:23:15;7.10;;;1.60;;
7841;SDS011;3966;51.052;13.820;2022-09-23T14:25:44;3.55;;;2.20;;
7841;SDS011;3966;51.052;13.820;2022-09-23T14:28:12;2.15;;;1.75;;
7841;SDS011;3966;51.052;13.820;2022-09-23T14:30:43;2.22;;;1.75;;
7841;SDS011;3966;51.052;13.820;2022-09-23T14:33:21;3.92;;;1.70;;
7841;SDS011;3966;51.052;13.820;2022-09-23T14:35:52;3.08;;;1.65;;
7841;SDS011;3966;51.052;13.820;2022-09-23T14:38:22;3.53;;;1.80;;
7841;SDS011;3966;51.052;13.820;2022-09-23T14:41:21;7.60;;;2.50;;
7841;SDS011;3966;51.052;13.820;2022-09-23T14:43:49;2.80;;;2.17;;
7841;SDS011;3966;51.052;13.820;2022-09-23T14:46:23;3.03;;;2.05;;
7841;SDS011;3966;51.052;13.820;2022-09-23T14:49:36;3.00;;;2.20;;
7841;SDS011;3966;51.052;13.820;2022-09-23T14:51:49;3.38;;;2.00;;
7841;SDS011;3966;51.052;13.820;2022-09-23T14:56:58;3.47;;;1.98;;
7841;SDS011;3966;51.052;13.820;2022-09-23T14:59:26;2.22;;;1.98;;
7841;SDS011;3966;51.052;13.820;2022-09-23T15:01:59;1.73;;;1.63;;
7841;SDS011;3966;51.052;13.820;2022-09-23T15:06:55;2.05;;;1.67;;
7841;SDS011;3966;51.052;13.820;2022-09-23T15:09:37;5.00;;;2.00;;
7841;SDS011;3966;51.052;13.820;2022-09-23T15:12:05;2.78;;;1.80;;
7841;SDS011;3966;51.052;13.820;2022-09-23T15:14:47;2.10;;;1.90;;
7841;SDS011;3966;51.052;13.820;2022-09-23T15:19:53;3.03;;;1.90;;
7841;SDS011;3966;51.052;13.820;2022-09-23T15:22:21;2.53;;;2.05;;
7841;SDS011;3966;51.052;13.820;2022-09-23T15:24:51;4.00;;;2.85;;
7841;SDS011;3966;51.052;13.820;2022-09-23T15:27:31;6.28;;;3.13;;
7841;SDS011;3966;51.052;13.820;2022-09-23T15:30:17;5.10;;;2.67;;
7841;SDS011;3966;51.052;13.820;2022-09-23T15:32:43;4.10;;;3.03;;
7841;SDS011;3966;51.052;13.820;2022-09-23T15:35:10;2.95;;;2.50;;
7841;SDS011;3966;51.052;13.820;2022-09-23T15:37:39;5.07;;;2.80;;
7841;SDS011;3966;51.052;13.820;2022-09-23T15:40:09;4.07;;;2.90;;
7841;SDS011;3966;51.052;13.820;2022-09-23T15:42:44;5.22;;;2.80;;
7841;SDS011;3966;51.052;13.820;2022-09-23T15:45:20;4.32;;;2.60;;
7841;SDS011;3966;51.052;13.820;2022-09-23T15:47:58;5.40;;;3.08;;
7841;SDS011;3966;51.052;13.820;2022-09-23T15:50:28;3.97;;;2.80;;
7841;SDS011;3966;51.052;13.820;2022-09-23T15:52:55;5.40;;;3.00;;
7841;SDS011;3966;51.052;13.820;2022-09-23T15:55:20;3.70;;;2.80;;
7841;SDS011;3966;51.052;13.820;2022-09-23T15:57:47;8.40;;;3.00;;
7841;SDS011;3966;51.052;13.820;2022-09-23T16:00:14;9.38;;;4.05;;
7841;SDS011;3966;51.052;13.820;2022-09-23T16:02:41;7.38;;;3.83;;
7841;SDS011;3966;51.052;13.820;2022-09-23T16:05:42;7.03;;;3.70;;
7841;SDS011;3966;51.052;13.820;2022-09-23T16:08:03;5.00;;;3.80;;
7841;SDS011;3966;51.052;13.820;2022-09-23T16:10:30;6.13;;;3.35;;
7841;SDS011;3966;51.052;13.820;2022-09-23T16:12:57;4.82;;;3.30;;
7841;SDS011;3966;51.052;13.820;2022-09-23T16:15:26;6.72;;;3.38;;
7841;SDS011;3966;51.052;13.820;2022-09-23T16:17:53;4.57;;;3.17;;
7841;SDS011;3966;51.052;13.820;2022-09-23T16:20:19;6.30;;;3.83;;
7841;SDS011;3966;51.052;13.820;2022-09-23T16:22:48;8.27;;;4.32;;
7841;SDS011;3966;51.052;13.820;2022-09-23T16:25:18;6.43;;;3.75;;
7841;SDS011;3966;51.052;13.820;2022-09-23T16:27:45;7.18;;;4.30;;
7841;SDS011;3966;51.052;13.820;2022-09-23T16:30:10;6.25;;;4.00;;
7841;SDS011;3966;51.052;13.820;2022-09-23T16:32:36;4.75;;;4.20;;
7841;SDS011;3966;51.052;13.820;2022-09-23T16:35:03;6.35;;;3.97;;
7841;SDS011;3966;51.052;13.820;2022-09-23T16:37:29;6.82;;;4.07;;
7841;SDS011;3966;51.052;13.820;2022-09-23T16:39:55;9.15;;;5.13;;
7841;SDS011;3966;51.052;13.820;2022-09-23T16:42:23;6.68;;;4.10;;
7841;SDS011;3966;51.052;13.820;2022-09-23T16:44:49;6.30;;;4.32;;
7841;SDS011;3966;51.052;13.820;2022-09-23T16:47:14;5.57;;;3.55;;
7841;SDS011;3966;51.052;13.820;2022-09-23T16:49:40;10.73;;;3.80;;
7841;SDS011;3966;51.052;13.820;2022-09-23T16:52:05;6.50;;;3.83;;
7841;SDS011;3966;51.052;13.820;2022-09-23T16:54:32;7.07;;;3.50;;
7841;SDS011;3966;51.052;13.820;2022-09-23T16:57:01;6.10;;;3.58;;
7841;SDS011;3966;51.052;13.820;2022-09-23T16:59:26;5.55;;;3.45;;
7841;SDS011;3966;51.052;13.820;2022-09-23T17:02:12;5.75;;;3.10;;
7841;SDS011;3966;51.052;13.820;2022-09-23T17:04:56;7.35;;;3.15;;
7841;SDS011;3966;51.052;13.820;2022-09-23T17:07:21;7.03;;;3.30;;
7841;SDS011;3966;51.052;13.820;2022-09-23T17:09:46;4.93;;;3.58;;
7841;SDS011;3966;51.052;13.820;2022-09-23T17:12:14;8.85;;;3.78;;
7841;SDS011;3966;51.052;13.820;2022-09-23T17:14:58;5.65;;;3.35;;
7841;SDS011;3966;51.052;13.820;2022-09-23T17:17:24;6.25;;;3.35;;
7841;SDS011;3966;51.052;13.820;2022-09-23T17:19:51;5.68;;;3.25;;
7841;SDS011;3966;51.052;13.820;2022-09-23T17:22:17;7.32;;;3.33;;
7841;SDS011;3966;51.052;13.820;2022-09-23T17:24:42;4.35;;;2.80;;
7841;SDS011;3966;51.052;13.820;2022-09-23T17:27:07;5.60;;;3.20;;
7841;SDS011;3966;51.052;13.820;2022-09-23T17:29:33;14.75;;;3.58;;
7841;SDS011;3966;51.052;13.820;2022-09-23T17:31:58;10.35;;;2.90;;
7841;SDS011;3966;51.052;13.820;2022-09-23T17:34:24;6.85;;;3.10;;
7841;SDS011;3966;51.052;13.820;2022-09-23T17:36:49;7.53;;;3.03;;
7841;SDS011;3966;51.052;13.820;2022-09-23T17:39:15;6.47;;;3.35;;
7841;SDS011;3966;51.052;13.820;2022-09-23T17:41:41;6.10;;;3.42;;
7841;SDS011;3966;51.052;13.820;2022-09-23T17:44:08;6.13;;;3.20;;
7841;SDS011;3966;51.052;13.820;2022-09-23T17:46:35;5.50;;;3.20;;
7841;SDS011;3966;51.052;13.820;2022-09-23T17:49:00;5.72;;;3.70;;
7841;SDS011;3966;51.052;13.820;2022-09-23T17:51:28;5.72;;;3.45;;